createdAt,value
2024-03-03T00:01:04.063Z,4.03
2024-03-03T00:03:34.569Z,0.20
2024-03-03T00:08:31.196Z,1.05
2024-03-03T00:10:58.790Z,0.28
2024-03-03T00:13:28.698Z,0.82
2024-03-03T00:15:56.734Z,0.45
2024-03-03T00:18:24.255Z,0.63
2024-03-03T00:20:51.751Z,0.82
2024-03-03T00:23:19.254Z,0.47
2024-03-03T00:25:47.199Z,1.60
2024-03-03T00:28:14.823Z,1.80
2024-03-03T00:30:42.331Z,2.83
2024-03-03T00:33:09.791Z,1.58
2024-03-03T00:35:37.292Z,2.42
2024-03-03T00:38:04.875Z,1.83
2024-03-03T00:40:33.965Z,1.60
2024-03-03T00:43:01.744Z,0.47
2024-03-03T00:45:29.232Z,1.40
2024-03-03T00:47:56.739Z,0.80
2024-03-03T00:50:24.332Z,1.08
2024-03-03T00:52:55.625Z,1.40
2024-03-03T00:55:23.799Z,0.45
2024-03-03T00:57:51.694Z,2.30
2024-03-03T01:00:19.288Z,1.73
2024-03-03T01:02:46.685Z,1.95
2024-03-03T01:05:14.324Z,0.68
2024-03-03T01:07:43.106Z,0.38
2024-03-03T01:10:11.423Z,2.40
2024-03-03T01:12:39.101Z,11.68
2024-03-03T01:15:06.771Z,0.50
2024-03-03T01:17:34.273Z,0.10
2024-03-03T01:20:01.831Z,0.70
2024-03-03T01:22:29.301Z,0.52
2024-03-03T01:24:56.900Z,0.50
2024-03-03T01:27:24.377Z,2.35
2024-03-03T01:29:51.907Z,0.10
2024-03-03T01:32:19.356Z,0.43
2024-03-03T01:34:46.883Z,0.10
2024-03-03T01:37:14.363Z,2.58
2024-03-03T01:39:43.531Z,2.78
2024-03-03T01:42:11.340Z,1.33
2024-03-03T01:44:38.867Z,4.57
2024-03-03T01:47:06.680Z,6.07
2024-03-03T01:49:34.893Z,3.22
2024-03-03T01:52:06.749Z,4.43
2024-03-03T01:57:03.536Z,1.90
2024-03-03T01:59:31.324Z,1.38
2024-03-03T02:01:59.080Z,0.73
2024-03-03T02:04:26.881Z,4.35
2024-03-03T02:06:57.676Z,1.13
2024-03-03T02:09:25.154Z,3.15
2024-03-03T02:11:53.714Z,0.80
2024-03-03T02:14:21.589Z,1.55
2024-03-03T02:16:49.066Z,1.00
2024-03-03T02:19:16.721Z,0.40
2024-03-03T02:21:45.161Z,3.55
2024-03-03T02:24:12.624Z,1.45
2024-03-03T02:26:40.131Z,3.50
2024-03-03T02:29:09.348Z,0.63
2024-03-03T02:31:37.536Z,0.70
2024-03-03T02:34:04.986Z,0.10
2024-03-03T02:36:32.449Z,0.40
2024-03-03T02:39:00.528Z,0.65
2024-03-03T02:41:28.796Z,1.27
2024-03-03T02:43:56.307Z,1.65
2024-03-03T02:46:23.732Z,0.50
2024-03-03T02:48:51.336Z,1.25
2024-03-03T02:51:18.891Z,2.50
2024-03-03T02:53:46.331Z,1.80
2024-03-03T02:56:13.746Z,0.70
2024-03-03T02:58:41.243Z,0.30
2024-03-03T03:01:08.745Z,1.42
2024-03-03T03:03:36.616Z,0.52
2024-03-03T03:06:04.686Z,1.52
2024-03-03T03:08:32.264Z,2.70
2024-03-03T03:10:59.691Z,1.55
2024-03-03T03:13:27.186Z,1.42
2024-03-03T03:15:54.666Z,1.75
2024-03-03T03:18:22.447Z,1.05
2024-03-03T03:20:49.876Z,2.92
2024-03-03T03:23:17.358Z,1.73
2024-03-03T03:25:45.137Z,0.90
2024-03-03T03:28:12.651Z,1.77
2024-03-03T03:30:40.140Z,0.20
2024-03-03T03:33:07.958Z,0.80
2024-03-03T03:35:35.631Z,0.32
2024-03-03T03:38:03.056Z,0.95
2024-03-03T03:40:30.447Z,0.90
2024-03-03T03:42:58.019Z,1.45
2024-03-03T03:45:25.433Z,2.40
2024-03-03T03:47:52.907Z,1.85
2024-03-03T03:50:20.347Z,0.43
2024-03-03T03:52:47.793Z,0.30
2024-03-03T03:55:15.259Z,2.17
2024-03-03T03:57:42.728Z,0.17
2024-03-03T04:00:11.268Z,0.43
2024-03-03T04:02:41.570Z,0.70
2024-03-03T04:05:09.227Z,0.77
2024-03-03T04:07:38.527Z,2.95
2024-03-03T04:10:06.927Z,2.95
2024-03-03T04:12:34.367Z,1.95
2024-03-03T04:15:01.786Z,0.88
2024-03-03T04:17:29.284Z,0.20
2024-03-03T04:19:57.002Z,0.20
2024-03-03T04:22:24.592Z,4.93
2024-03-03T04:24:52.088Z,0.45
2024-03-03T04:27:19.556Z,1.45
2024-03-03T04:29:48.214Z,1.85
2024-03-03T04:32:15.832Z,1.08
2024-03-03T04:34:43.445Z,0.85
2024-03-03T04:37:12.041Z,1.67
2024-03-03T04:39:39.513Z,0.93
2024-03-03T04:42:07.010Z,2.60
2024-03-03T04:44:34.542Z,2.35
2024-03-03T04:47:02.046Z,2.58
2024-03-03T04:49:29.887Z,0.70
2024-03-03T04:51:57.317Z,3.60
2024-03-03T04:54:24.824Z,1.67
2024-03-03T04:56:52.339Z,2.63
2024-03-03T04:59:19.806Z,0.63
2024-03-03T05:01:47.252Z,0.38
2024-03-03T05:04:15.133Z,0.10
2024-03-03T05:06:45.048Z,0.10
2024-03-03T05:09:13.029Z,0.40
2024-03-03T05:11:40.445Z,0.50
2024-03-03T05:14:07.895Z,0.43
2024-03-03T05:16:35.331Z,0.32
2024-03-03T05:19:02.806Z,0.63
2024-03-03T05:21:30.270Z,0.32
2024-03-03T05:23:57.657Z,4.03
2024-03-03T05:26:25.915Z,0.73
2024-03-03T05:28:53.497Z,2.13
2024-03-03T05:31:20.919Z,3.35
2024-03-03T05:33:48.430Z,2.50
2024-03-03T05:36:16.257Z,0.40
2024-03-03T05:38:43.800Z,0.30
2024-03-03T05:41:11.264Z,0.93
2024-03-03T05:43:39.148Z,0.65
2024-03-03T05:46:06.722Z,0.50
2024-03-03T05:48:34.146Z,2.30
2024-03-03T05:51:01.553Z,0.70
2024-03-03T05:53:28.970Z,0.30
2024-03-03T05:55:56.448Z,0.20
2024-03-03T05:58:24.334Z,0.75
2024-03-03T06:00:51.961Z,0.75
2024-03-03T06:03:19.727Z,0.13
2024-03-03T06:05:47.184Z,0.15
2024-03-03T06:08:17.545Z,0.10
2024-03-03T06:10:45.017Z,1.55
2024-03-03T06:13:12.445Z,0.30
2024-03-03T06:15:40.245Z,0.63
2024-03-03T06:18:08.051Z,0.80
2024-03-03T06:20:35.519Z,1.30
2024-03-03T06:23:02.898Z,1.42
2024-03-03T06:25:32.517Z,5.75
2024-03-03T06:28:00.478Z,0.88
2024-03-03T06:30:27.916Z,0.40
2024-03-03T06:32:55.433Z,2.08
2024-03-03T06:35:22.926Z,1.23
2024-03-03T06:37:54.257Z,1.85
2024-03-03T06:40:22.028Z,0.55
2024-03-03T06:42:49.494Z,0.85
2024-03-03T06:45:16.973Z,1.80
2024-03-03T06:47:44.554Z,0.63
2024-03-03T06:50:12.088Z,0.10
2024-03-03T06:52:39.959Z,2.75
2024-03-03T06:55:08.246Z,1.38
2024-03-03T06:57:35.701Z,1.52
2024-03-03T07:00:03.148Z,0.70
2024-03-03T07:02:50.562Z,0.30
2024-03-03T07:05:18.433Z,2.00
2024-03-03T07:07:45.849Z,0.43
2024-03-03T07:10:13.463Z,0.22
2024-03-03T07:12:41.385Z,1.45
2024-03-03T07:15:09.388Z,2.65
2024-03-03T07:17:36.892Z,2.83
2024-03-03T07:20:06.761Z,0.13
2024-03-03T07:22:36.172Z,0.52
2024-03-03T07:25:04.185Z,1.00
2024-03-03T07:27:31.954Z,1.95
2024-03-03T07:29:59.443Z,1.33
2024-03-03T07:32:29.861Z,0.25
2024-03-03T07:34:57.726Z,0.20
2024-03-03T07:37:25.462Z,1.00
2024-03-03T07:39:52.980Z,3.13
2024-03-03T07:42:20.386Z,1.35
2024-03-03T07:44:47.800Z,1.58
2024-03-03T07:47:18.108Z,1.13
2024-03-03T07:49:45.579Z,0.35
2024-03-03T07:52:13.007Z,0.50
2024-03-03T07:54:40.526Z,0.68
2024-03-03T07:57:08.269Z,0.10
2024-03-03T07:59:35.685Z,0.63
2024-03-03T08:02:03.613Z,0.20
2024-03-03T08:04:31.206Z,0.85
2024-03-03T08:06:58.758Z,1.35
2024-03-03T08:09:26.245Z,0.88
2024-03-03T08:11:53.867Z,1.08
2024-03-03T08:14:21.771Z,0.20
2024-03-03T08:16:49.242Z,1.65
2024-03-03T08:19:16.699Z,2.40
2024-03-03T08:21:44.176Z,0.63
2024-03-03T08:24:12.281Z,0.88
2024-03-03T08:26:39.854Z,1.52
2024-03-03T08:29:08.512Z,0.63
2024-03-03T08:31:49.933Z,0.65
2024-03-03T08:34:26.434Z,2.17
2024-03-03T08:37:04.276Z,2.15
2024-03-03T08:39:46.949Z,0.55
2024-03-03T08:42:20.392Z,0.82
2024-03-03T08:45:01.790Z,0.43
2024-03-03T08:47:34.674Z,0.63
2024-03-03T08:50:21.408Z,2.35
2024-03-03T08:55:55.136Z,0.82
2024-03-03T08:58:31.753Z,0.43
2024-03-03T09:01:01.596Z,1.30
2024-03-03T09:03:32.960Z,0.60
2024-03-03T09:06:00.637Z,2.03
2024-03-03T09:08:31.283Z,2.20
2024-03-03T09:11:10.518Z,0.55
2024-03-03T09:16:31.056Z,1.38
2024-03-03T09:19:06.536Z,1.75
2024-03-03T09:21:51.491Z,0.73
2024-03-03T09:24:20.781Z,0.90
2024-03-03T09:27:05.855Z,0.80
2024-03-03T09:29:47.877Z,0.93
2024-03-03T09:35:15.347Z,1.27
2024-03-03T09:37:47.435Z,2.92
2024-03-03T09:40:27.501Z,0.63
2024-03-03T09:43:19.350Z,1.05
2024-03-03T09:45:56.342Z,0.40
2024-03-03T09:48:27.072Z,0.65
2024-03-03T09:51:00.752Z,1.30
2024-03-03T09:53:30.434Z,0.30
2024-03-03T09:56:04.786Z,0.40
2024-03-03T09:58:33.180Z,0.45
2024-03-03T10:01:03.684Z,0.90
2024-03-03T10:03:44.334Z,0.20
2024-03-03T10:06:27.383Z,0.13
2024-03-03T10:08:58.985Z,0.55
2024-03-03T10:11:26.925Z,0.17
2024-03-03T10:13:54.505Z,2.05
2024-03-03T10:16:23.400Z,0.22
2024-03-03T10:19:00.938Z,0.43
2024-03-03T10:21:31.363Z,0.30
2024-03-03T10:24:21.472Z,0.28
2024-03-03T10:26:50.379Z,0.20
2024-03-03T10:29:21.093Z,0.10
2024-03-03T10:31:51.337Z,0.10
2024-03-03T10:34:24.958Z,0.17
2024-03-03T10:37:05.899Z,7.93
2024-03-03T10:39:34.025Z,0.68
2024-03-03T10:42:01.357Z,0.40
2024-03-03T10:44:28.835Z,0.20
2024-03-03T10:46:56.098Z,0.75
2024-03-03T10:49:26.506Z,0.10
2024-03-03T10:51:54.080Z,0.20
2024-03-03T10:54:23.994Z,0.10
2024-03-03T10:56:52.221Z,0.32
2024-03-03T10:59:20.630Z,0.50
2024-03-03T11:01:48.530Z,0.10
2024-03-03T11:04:16.515Z,0.10
2024-03-03T11:06:44.063Z,0.30
2024-03-03T11:09:12.733Z,0.20
2024-03-03T11:11:41.001Z,0.25
2024-03-03T11:14:14.735Z,0.38
2024-03-03T11:16:50.928Z,0.30
2024-03-03T11:19:21.730Z,0.40
2024-03-03T11:21:52.228Z,0.60
2024-03-03T11:24:24.517Z,0.13
2024-03-03T11:26:56.999Z,0.50
2024-03-03T11:29:25.414Z,0.20
2024-03-03T11:31:58.503Z,2.47
2024-03-03T11:34:26.391Z,1.48
2024-03-03T11:36:54.023Z,0.13
2024-03-03T11:39:23.284Z,0.52
2024-03-03T11:41:51.261Z,0.25
2024-03-03T11:44:37.289Z,0.10
2024-03-03T11:47:05.417Z,0.20
2024-03-03T11:49:33.211Z,0.30
2024-03-03T11:52:00.632Z,0.35
2024-03-03T11:54:39.029Z,0.10
2024-03-03T11:57:20.293Z,0.47
2024-03-03T12:00:26.047Z,0.20
2024-03-03T12:07:13.612Z,0.10
2024-03-03T12:09:48.998Z,0.10
2024-03-03T12:12:50.216Z,3.50
2024-03-03T12:15:19.368Z,0.00
2024-03-03T12:17:49.403Z,0.15
2024-03-03T12:20:18.428Z,0.00
2024-03-03T12:22:49.430Z,0.10
2024-03-03T12:25:20.638Z,0.10
2024-03-03T12:27:52.277Z,0.20
2024-03-03T12:30:24.319Z,0.10
2024-03-03T12:32:54.447Z,0.20
2024-03-03T12:35:23.024Z,1.08
2024-03-03T12:37:51.920Z,0.10
2024-03-03T12:40:19.676Z,0.30
2024-03-03T12:42:52.339Z,0.10
2024-03-03T12:45:19.829Z,0.10
2024-03-03T12:47:47.484Z,0.10
2024-03-03T12:50:15.314Z,0.52
2024-03-03T12:52:44.366Z,0.30
2024-03-03T12:55:12.640Z,1.17
2024-03-03T12:57:41.227Z,0.15
2024-03-03T13:00:14.163Z,0.10
2024-03-03T13:02:42.237Z,0.10
2024-03-03T13:05:10.180Z,0.47
2024-03-03T13:07:37.638Z,0.00
2024-03-03T13:10:18.231Z,0.20
2024-03-03T13:12:46.659Z,0.10
2024-03-03T13:15:14.192Z,0.68
2024-03-03T13:17:41.540Z,0.08
2024-03-03T13:20:13.503Z,0.63
2024-03-03T13:22:41.090Z,0.20
2024-03-03T13:25:10.010Z,0.25
2024-03-03T13:27:37.439Z,0.20
2024-03-03T13:30:08.332Z,0.10
2024-03-03T13:32:36.287Z,0.03
2024-03-03T13:35:04.145Z,1.65
2024-03-03T13:37:31.778Z,0.10
2024-03-03T13:39:59.193Z,0.10
2024-03-03T13:42:26.594Z,0.55
2024-03-03T13:44:54.190Z,0.45
2024-03-03T13:47:21.514Z,0.00
2024-03-03T13:49:48.775Z,0.00
2024-03-03T13:52:16.174Z,0.00
2024-03-03T13:54:44.693Z,0.10
2024-03-03T13:57:12.385Z,0.20
2024-03-03T13:59:40.580Z,0.00
2024-03-03T14:02:07.961Z,0.65
2024-03-03T14:04:35.474Z,0.10
2024-03-03T14:07:05.922Z,0.10
2024-03-03T14:09:33.208Z,0.00
2024-03-03T14:12:00.560Z,0.00
2024-03-03T14:14:27.820Z,0.15
2024-03-03T14:16:55.103Z,0.10
2024-03-03T14:19:22.519Z,0.00
2024-03-03T14:21:51.264Z,0.00
2024-03-03T14:24:19.433Z,0.00
2024-03-03T14:26:46.855Z,0.10
2024-03-03T14:29:14.420Z,0.00
2024-03-03T14:31:41.669Z,1.55
2024-03-03T14:34:09.023Z,0.00
2024-03-03T14:36:36.966Z,0.20
2024-03-03T14:39:05.306Z,0.00
2024-03-03T14:41:32.566Z,0.00
2024-03-03T14:44:01.716Z,0.10
2024-03-03T14:46:29.423Z,0.00
2024-03-03T14:48:56.797Z,0.30
2024-03-03T14:51:24.059Z,0.10
2024-03-03T14:53:51.895Z,0.15
2024-03-03T14:56:19.553Z,0.35
2024-03-03T14:58:47.050Z,0.10
2024-03-03T15:01:14.360Z,0.10
2024-03-03T15:03:41.659Z,1.27
2024-03-03T15:06:09.203Z,0.10
2024-03-03T15:08:36.532Z,0.20
2024-03-03T15:11:03.841Z,0.20
2024-03-03T15:13:31.112Z,1.58
2024-03-03T15:15:58.417Z,0.45
2024-03-03T15:18:25.697Z,0.10
2024-03-03T15:20:52.917Z,1.15
2024-03-03T15:23:20.142Z,0.00
2024-03-03T15:25:47.460Z,0.43
2024-03-03T15:28:14.682Z,9.07
2024-03-03T15:30:41.937Z,0.10
2024-03-03T15:33:09.284Z,0.00
2024-03-03T15:35:36.559Z,0.00
2024-03-03T15:38:03.939Z,0.10
2024-03-03T15:40:31.307Z,0.75
2024-03-03T15:42:58.922Z,0.35
2024-03-03T15:45:26.179Z,1.45
2024-03-03T15:47:53.556Z,0.57
2024-03-03T15:50:22.150Z,0.10
2024-03-03T15:52:49.425Z,2.05
2024-03-03T15:55:16.722Z,0.88
2024-03-03T15:57:44.125Z,0.25
2024-03-03T16:00:13.426Z,0.32
2024-03-03T16:02:40.873Z,0.52
2024-03-03T16:05:08.802Z,0.50
2024-03-03T16:07:36.909Z,0.08
2024-03-03T16:10:04.564Z,0.57
2024-03-03T16:12:32.028Z,0.65
2024-03-03T16:15:00.679Z,0.73
2024-03-03T16:17:28.573Z,1.33
2024-03-03T16:19:55.935Z,3.25
2024-03-03T16:22:23.377Z,1.27
2024-03-03T16:24:50.730Z,0.70
2024-03-03T16:27:18.358Z,0.60
2024-03-03T16:29:45.676Z,0.55
2024-03-03T16:32:12.980Z,0.20
2024-03-03T16:34:42.420Z,1.55
2024-03-03T16:37:09.728Z,0.40
2024-03-03T16:39:37.237Z,0.40
2024-03-03T16:42:05.406Z,1.00
2024-03-03T16:44:32.869Z,0.63
2024-03-03T16:47:00.406Z,0.40
2024-03-03T16:49:27.758Z,1.60
2024-03-03T16:51:58.559Z,0.60
2024-03-03T16:54:26.395Z,1.10
2024-03-03T16:56:53.854Z,3.53
2024-03-03T16:59:21.663Z,2.60
2024-03-03T17:01:49.274Z,1.73
2024-03-03T17:04:16.808Z,2.08
2024-03-03T17:06:44.645Z,3.15
2024-03-03T17:09:12.256Z,1.98
2024-03-03T17:11:40.037Z,0.77
2024-03-03T17:14:08.146Z,0.93
2024-03-03T17:16:35.745Z,0.30
2024-03-03T17:19:03.868Z,3.72
2024-03-03T17:21:31.380Z,1.80
2024-03-03T17:23:58.965Z,1.38
2024-03-03T17:26:29.692Z,1.98
2024-03-03T17:28:59.005Z,0.90
2024-03-03T17:31:26.459Z,1.05
2024-03-03T17:33:54.651Z,2.22
2024-03-03T17:36:24.864Z,6.68
2024-03-03T17:38:53.285Z,15.23
2024-03-03T17:41:21.282Z,8.75
2024-03-03T17:43:48.860Z,3.42
2024-03-03T17:46:16.198Z,17.90
2024-03-03T17:48:44.506Z,39.60
2024-03-03T17:51:12.141Z,39.42
2024-03-03T17:53:39.487Z,16.33
2024-03-03T17:56:08.002Z,3.05
2024-03-03T17:58:35.526Z,2.55
2024-03-03T18:01:03.453Z,2.10
2024-03-03T18:03:30.813Z,2.95
2024-03-03T18:05:58.244Z,0.65
2024-03-03T18:08:25.596Z,0.35
2024-03-03T18:10:53.412Z,0.82
2024-03-03T18:13:22.286Z,0.10
2024-03-03T18:15:50.443Z,0.25
2024-03-03T18:18:18.286Z,0.43
2024-03-03T18:20:46.462Z,2.45
2024-03-03T18:23:14.702Z,1.80
2024-03-03T18:25:42.116Z,1.70
2024-03-03T18:28:10.250Z,0.10
2024-03-03T18:30:37.636Z,0.40
2024-03-03T18:33:05.170Z,0.77
2024-03-03T18:35:32.705Z,2.83
2024-03-03T18:38:01.884Z,0.32
2024-03-03T18:40:31.981Z,0.10
2024-03-03T18:42:59.590Z,0.20
2024-03-03T18:45:26.980Z,0.28
2024-03-03T18:47:56.674Z,1.23
2024-03-03T18:50:25.153Z,0.40
2024-03-03T18:52:53.028Z,0.38
2024-03-03T18:55:20.824Z,2.85
2024-03-03T18:57:49.148Z,1.20
2024-03-03T19:00:17.404Z,0.60
2024-03-03T19:02:49.222Z,0.17
2024-03-03T19:05:17.009Z,1.35
2024-03-03T19:07:44.858Z,0.43
2024-03-03T19:10:12.804Z,0.50
2024-03-03T19:12:40.503Z,2.03
2024-03-03T19:15:08.767Z,0.90
2024-03-03T19:17:36.102Z,1.33
2024-03-03T19:20:04.570Z,1.92
2024-03-03T19:22:31.866Z,0.30
2024-03-03T19:28:45.568Z,0.90
2024-03-03T19:31:15.699Z,0.88
2024-03-03T19:33:43.979Z,0.75
2024-03-03T19:36:14.031Z,0.50
2024-03-03T19:38:47.537Z,0.85
2024-03-03T19:41:22.234Z,1.23
2024-03-03T19:43:53.955Z,0.25
2024-03-03T19:46:25.248Z,1.95
2024-03-03T19:49:00.479Z,0.10
2024-03-03T19:51:32.134Z,1.23
2024-03-03T19:54:00.595Z,0.70
2024-03-03T19:56:28.084Z,1.00
2024-03-03T19:58:56.512Z,2.17
2024-03-03T20:01:28.088Z,4.50
2024-03-03T20:03:57.617Z,1.55
2024-03-03T20:06:34.107Z,0.50
2024-03-03T20:09:11.443Z,0.70
2024-03-03T20:11:45.940Z,3.90
2024-03-03T20:14:13.797Z,0.50
2024-03-03T20:16:41.364Z,0.35
2024-03-03T20:19:09.145Z,0.40
2024-03-03T20:21:40.477Z,0.35
2024-03-03T20:24:08.132Z,1.85
2024-03-03T20:26:57.723Z,2.50
2024-03-03T20:29:25.297Z,0.75
2024-03-03T20:31:55.610Z,0.25
2024-03-03T20:35:01.372Z,0.20
2024-03-03T20:37:58.259Z,0.50
2024-03-03T20:44:27.160Z,2.08
2024-03-03T20:49:41.907Z,0.70
2024-03-03T20:55:44.927Z,2.20
2024-03-03T20:58:24.598Z,2.05
2024-03-03T21:01:10.048Z,1.15
2024-03-03T21:03:45.191Z,1.85
2024-03-03T21:06:42.915Z,0.50
2024-03-03T21:09:14.861Z,1.02
2024-03-03T21:11:59.827Z,0.57
2024-03-03T21:14:36.827Z,3.22
2024-03-03T21:17:41.350Z,0.40
2024-03-03T21:20:20.172Z,1.30
2024-03-03T21:22:49.693Z,0.65
2024-03-03T21:25:32.219Z,0.73
2024-03-03T21:28:13.903Z,1.92
2024-03-03T21:30:44.600Z,0.38
2024-03-03T21:33:19.582Z,1.45
2024-03-03T21:35:47.996Z,0.45
2024-03-03T21:38:21.988Z,0.63
2024-03-03T21:41:02.015Z,0.47
2024-03-03T21:43:32.938Z,1.95
2024-03-03T21:46:07.014Z,0.40
2024-03-03T21:48:37.186Z,15.90
2024-03-03T21:51:08.142Z,0.20
2024-03-03T21:53:41.374Z,0.40
2024-03-03T21:56:20.330Z,0.95
2024-03-03T21:58:51.696Z,0.30
2024-03-03T22:01:25.069Z,2.55
2024-03-03T22:03:56.117Z,1.35
2024-03-03T22:06:23.623Z,0.43
2024-03-03T22:08:52.716Z,0.22
2024-03-03T22:11:26.982Z,0.30
2024-03-03T22:13:54.619Z,1.52
2024-03-03T22:16:25.489Z,1.15
2024-03-03T22:18:59.469Z,1.13
2024-03-03T22:21:28.239Z,0.95
2024-03-03T22:24:06.181Z,0.32
2024-03-03T22:26:33.731Z,1.02
2024-03-03T22:29:01.075Z,2.47
2024-03-03T22:31:28.434Z,2.63
2024-03-03T22:33:55.727Z,0.85
2024-03-03T22:36:23.062Z,2.53
2024-03-03T22:38:50.417Z,0.32
2024-03-03T22:41:18.684Z,0.70
2024-03-03T22:43:46.534Z,3.47
2024-03-03T22:46:16.408Z,0.45
2024-03-03T22:48:45.895Z,0.30
2024-03-03T22:51:13.254Z,0.98
2024-03-03T22:53:41.017Z,0.43
2024-03-03T22:56:08.306Z,0.38
2024-03-03T22:58:36.562Z,1.50
2024-03-03T23:01:04.489Z,0.50
2024-03-03T23:03:31.887Z,0.65
2024-03-03T23:05:59.916Z,0.43
2024-03-03T23:08:27.695Z,0.98
2024-03-03T23:10:55.189Z,0.70
2024-03-03T23:13:23.807Z,0.85
2024-03-03T23:15:51.794Z,4.35
2024-03-03T23:18:19.053Z,0.90
2024-03-03T23:20:46.586Z,1.33
2024-03-03T23:23:15.560Z,3.35
2024-03-03T23:25:44.068Z,0.55
2024-03-03T23:28:11.765Z,0.17
2024-03-03T23:30:39.312Z,0.45
2024-03-03T23:33:06.762Z,0.75
2024-03-03T23:35:34.221Z,0.38
2024-03-03T23:38:01.814Z,0.20
2024-03-03T23:40:29.361Z,0.50
2024-03-03T23:42:56.660Z,0.57
2024-03-03T23:45:24.468Z,0.40
2024-03-03T23:47:52.083Z,0.68
2024-03-03T23:50:20.299Z,0.40
2024-03-03T23:52:47.579Z,1.70
2024-03-03T23:55:17.479Z,0.10
2024-03-03T23:57:45.610Z,1.88
